createdAt,value
2018-08-04T00:00:26.369Z,2.23
2018-08-04T00:02:54.640Z,1.70
2018-08-04T00:05:23.049Z,2.00
2018-08-04T00:07:51.338Z,2.10
2018-08-04T00:10:21.521Z,1.62
2018-08-04T00:12:50.903Z,2.50
2018-08-04T00:15:19.492Z,1.63
2018-08-04T00:17:48.553Z,2.30
2018-08-04T00:20:17.107Z,1.60
2018-08-04T00:22:45.428Z,1.80
2018-08-04T00:25:13.736Z,2.00
2018-08-04T00:27:43.173Z,1.90
2018-08-04T00:30:13.648Z,2.70
2018-08-04T00:32:43.679Z,1.63
2018-08-04T00:35:12.436Z,2.20
2018-08-04T00:37:40.764Z,2.03
2018-08-04T00:40:11.022Z,1.80
2018-08-04T00:42:39.347Z,1.60
2018-08-04T00:45:07.949Z,2.40
2018-08-04T00:47:36.293Z,2.03
2018-08-04T00:50:05.449Z,2.50
2018-08-04T00:52:33.753Z,2.07
2018-08-04T00:55:02.076Z,1.90
2018-08-04T00:57:30.481Z,2.03
2018-08-04T00:59:58.779Z,1.83
2018-08-04T01:02:28.333Z,2.33
2018-08-04T01:04:56.620Z,2.87
2018-08-04T01:07:24.969Z,2.60
2018-08-04T01:09:53.374Z,2.33
2018-08-04T01:12:21.657Z,2.00
2018-08-04T01:14:49.997Z,2.50
2018-08-04T01:17:18.261Z,2.60
2018-08-04T01:19:46.698Z,2.17
2018-08-04T01:22:14.969Z,2.30
2018-08-04T01:24:43.264Z,2.90
2018-08-04T01:27:11.533Z,2.67
2018-08-04T01:29:39.809Z,2.90
2018-08-04T01:32:08.076Z,2.50
2018-08-04T01:34:36.363Z,1.90
2018-08-04T01:37:04.764Z,2.47
2018-08-04T01:39:33.057Z,2.30
2018-08-04T01:42:01.371Z,2.33
2018-08-04T01:44:29.657Z,2.83
2018-08-04T01:46:57.965Z,2.57
2018-08-04T01:49:26.250Z,2.57
2018-08-04T01:51:54.517Z,2.60
2018-08-04T01:54:22.804Z,2.60
2018-08-04T01:56:51.122Z,2.70
2018-08-04T01:59:19.457Z,1.97
2018-08-04T02:01:47.785Z,2.37
2018-08-04T02:04:17.192Z,3.00
2018-08-04T02:06:45.497Z,2.70
2018-08-04T02:09:13.828Z,2.27
2018-08-04T02:11:42.158Z,2.50
2018-08-04T02:14:10.425Z,2.20
2018-08-04T02:16:38.901Z,2.20
2018-08-04T02:19:07.261Z,2.97
2018-08-04T02:21:35.572Z,3.30
2018-08-04T02:24:03.841Z,3.47
2018-08-04T02:26:32.138Z,3.00
2018-08-04T02:29:00.453Z,3.40
2018-08-04T02:31:28.730Z,3.50
2018-08-04T02:33:56.984Z,3.70
2018-08-04T02:36:25.281Z,3.50
2018-08-04T02:38:53.576Z,3.60
2018-08-04T02:41:21.829Z,3.17
2018-08-04T02:43:50.101Z,3.30
2018-08-04T02:46:18.439Z,3.67
2018-08-04T02:48:46.721Z,3.40
2018-08-04T02:51:14.990Z,3.20
2018-08-04T02:53:43.377Z,3.30
2018-08-04T02:56:11.617Z,3.87
2018-08-04T02:58:39.881Z,3.67
2018-08-04T03:01:08.133Z,3.50
2018-08-04T03:03:36.429Z,4.73
2018-08-04T03:06:04.980Z,3.50
2018-08-04T03:08:33.297Z,3.20
2018-08-04T03:11:01.536Z,3.20
2018-08-04T03:13:29.789Z,3.10
2018-08-04T03:15:58.025Z,3.30
2018-08-04T03:18:26.383Z,3.33
2018-08-04T03:20:54.749Z,2.90
2018-08-04T03:23:22.997Z,3.83
2018-08-04T03:25:51.277Z,3.17
2018-08-04T03:28:19.528Z,3.00
2018-08-04T03:30:48.865Z,2.77
2018-08-04T03:33:17.118Z,2.83
2018-08-04T03:35:45.420Z,3.00
2018-08-04T03:38:13.665Z,2.67
2018-08-04T03:40:41.941Z,2.93
2018-08-04T03:43:10.252Z,3.53
2018-08-04T03:45:38.560Z,2.47
2018-08-04T03:48:06.845Z,3.47
2018-08-04T03:50:35.110Z,3.30
2018-08-04T03:53:03.364Z,3.37
2018-08-04T03:55:31.658Z,3.70
2018-08-04T03:57:59.925Z,3.17
2018-08-04T04:00:28.216Z,3.00
2018-08-04T04:02:56.465Z,3.10
2018-08-04T04:05:24.864Z,3.13
2018-08-04T04:07:53.101Z,3.37
2018-08-04T04:10:21.389Z,3.03
2018-08-04T04:12:49.677Z,3.00
2018-08-04T04:15:17.909Z,3.03
2018-08-04T04:17:48.236Z,2.97
2018-08-04T04:20:18.128Z,2.27
2018-08-04T04:22:46.533Z,3.13
2018-08-04T04:25:14.826Z,3.23
2018-08-04T04:27:43.489Z,3.60
2018-08-04T04:30:12.255Z,3.53
2018-08-04T04:32:40.536Z,3.83
2018-08-04T04:35:08.796Z,3.13
2018-08-04T04:37:37.164Z,3.00
2018-08-04T04:40:06.596Z,3.17
2018-08-04T04:42:34.968Z,3.03
2018-08-04T04:45:03.337Z,3.50
2018-08-04T04:47:31.629Z,4.07
2018-08-04T04:50:00.069Z,3.67
2018-08-04T04:52:28.373Z,3.60
2018-08-04T04:54:56.878Z,3.97
2018-08-04T04:57:25.183Z,4.03
2018-08-04T04:59:53.438Z,4.17
2018-08-04T05:02:21.801Z,3.93
2018-08-04T05:04:50.274Z,3.73
2018-08-04T05:08:22.005Z,3.73
2018-08-04T05:10:50.382Z,4.80
2018-08-04T05:13:18.674Z,3.63
2018-08-04T05:15:46.920Z,3.70
2018-08-04T05:18:15.317Z,4.23
2018-08-04T05:20:43.553Z,4.07
2018-08-04T05:23:11.877Z,4.40
2018-08-04T05:25:40.113Z,4.10
2018-08-04T05:28:08.369Z,4.50
2018-08-04T05:30:36.634Z,3.83
2018-08-04T05:33:05.056Z,4.77
2018-08-04T05:35:33.337Z,4.57
2018-08-04T05:38:01.577Z,4.17
2018-08-04T05:40:29.872Z,5.33
2018-08-04T05:42:58.144Z,4.13
2018-08-04T05:45:26.465Z,4.97
2018-08-04T05:47:54.708Z,5.10
2018-08-04T05:50:22.985Z,4.90
2018-08-04T05:52:51.228Z,5.40
2018-08-04T05:55:19.512Z,8.57
2018-08-04T05:57:47.745Z,5.43
2018-08-04T06:00:16.019Z,5.33
2018-08-04T06:02:44.257Z,5.57
2018-08-04T06:05:12.573Z,5.97
2018-08-04T06:07:40.968Z,6.13
2018-08-04T06:10:09.265Z,6.73
2018-08-04T06:12:37.517Z,6.57
2018-08-04T06:15:05.872Z,5.93
2018-08-04T06:17:34.153Z,6.57
2018-08-04T06:20:02.416Z,6.37
2018-08-04T06:22:30.715Z,6.63
2018-08-04T06:25:00.030Z,6.37
2018-08-04T06:27:28.279Z,6.17
2018-08-04T06:29:56.697Z,5.47
2018-08-04T06:32:24.961Z,5.43
2018-08-04T06:34:53.512Z,5.43
2018-08-04T06:37:21.881Z,5.50
2018-08-04T06:39:51.317Z,6.30
2018-08-04T06:42:19.581Z,8.03
2018-08-04T06:44:49.033Z,14.80
2018-08-04T06:47:17.299Z,25.40
2018-08-04T06:49:45.544Z,17.73
2018-08-04T06:52:13.801Z,6.43
2018-08-04T06:54:43.072Z,5.70
2018-08-04T06:57:11.356Z,4.47
2018-08-04T06:59:39.629Z,3.40
2018-08-04T07:02:07.905Z,3.90
2018-08-04T07:04:36.137Z,4.20
2018-08-04T07:07:04.441Z,3.80
2018-08-04T07:09:32.681Z,3.60
2018-08-04T07:12:01.019Z,3.90
2018-08-04T07:14:29.266Z,4.23
2018-08-04T07:16:57.549Z,3.87
2018-08-04T07:19:25.789Z,3.03
2018-08-04T07:21:56.256Z,2.70
2018-08-04T07:24:24.525Z,3.60
2018-08-04T07:26:52.796Z,3.10
2018-08-04T07:29:21.061Z,2.93
2018-08-04T07:31:49.332Z,3.57
2018-08-04T07:34:17.656Z,3.60
2018-08-04T07:36:45.861Z,3.20
2018-08-04T07:39:15.227Z,3.67
2018-08-04T07:41:43.490Z,3.17
2018-08-04T07:44:11.774Z,3.63
2018-08-04T07:46:41.077Z,2.87
2018-08-04T07:49:09.370Z,3.80
2018-08-04T07:51:37.649Z,3.57
2018-08-04T07:54:06.310Z,2.73
2018-08-04T07:56:34.584Z,3.00
2018-08-04T07:59:03.002Z,2.87
2018-08-04T08:01:31.297Z,3.20
2018-08-04T08:04:01.566Z,3.23
2018-08-04T08:06:29.842Z,3.60
2018-08-04T08:08:58.098Z,3.17
2018-08-04T08:11:26.388Z,3.37
2018-08-04T08:13:54.671Z,3.20
2018-08-04T08:16:22.947Z,2.40
2018-08-04T08:18:51.225Z,2.87
2018-08-04T08:21:19.716Z,2.77
2018-08-04T08:23:49.020Z,2.50
2018-08-04T08:26:17.281Z,3.10
2018-08-04T08:28:45.598Z,2.70
2018-08-04T08:31:13.947Z,3.20
2018-08-04T08:33:42.318Z,3.57
2018-08-04T08:36:10.838Z,3.70
2018-08-04T08:38:39.140Z,3.80
2018-08-04T08:41:07.412Z,3.03
2018-08-04T08:43:35.753Z,2.90
2018-08-04T08:46:05.135Z,3.40
2018-08-04T08:48:33.404Z,2.47
2018-08-04T08:51:01.693Z,2.60
2018-08-04T08:53:32.301Z,2.63
2018-08-04T08:56:00.321Z,2.93
2018-08-04T08:58:29.707Z,2.73
2018-08-04T09:00:57.945Z,2.33
2018-08-04T09:03:26.246Z,3.00
2018-08-04T09:05:55.542Z,3.20
2018-08-04T09:08:23.825Z,3.10
2018-08-04T09:10:52.102Z,3.00
2018-08-04T09:13:20.357Z,2.13
2018-08-04T09:15:48.705Z,2.93
2018-08-04T09:18:16.905Z,3.13
2018-08-04T09:20:45.190Z,2.47
2018-08-04T09:23:13.453Z,1.60
2018-08-04T09:25:41.713Z,2.10
2018-08-04T09:28:11.037Z,2.73
2018-08-04T09:30:39.315Z,2.80
2018-08-04T09:33:09.639Z,2.33
2018-08-04T09:35:37.909Z,2.10
2018-08-04T09:38:07.199Z,2.20
2018-08-04T09:40:35.491Z,2.30
2018-08-04T09:43:03.765Z,2.20
2018-08-04T09:45:32.153Z,2.30
2018-08-04T09:48:00.429Z,4.20
2018-08-04T09:50:29.822Z,2.73
2018-08-04T09:52:58.060Z,2.30
2018-08-04T09:55:26.481Z,2.80
2018-08-04T09:57:54.725Z,3.20
2018-08-04T10:01:31.304Z,2.00
2018-08-04T10:03:59.644Z,2.50
2018-08-04T10:06:28.950Z,2.00
2018-08-04T10:08:57.196Z,1.93
2018-08-04T10:11:25.486Z,2.37
2018-08-04T10:13:53.825Z,2.17
2018-08-04T10:16:22.092Z,2.10
2018-08-04T10:18:50.360Z,2.37
2018-08-04T10:21:18.638Z,2.70
2018-08-04T10:23:48.046Z,2.20
2018-08-04T10:26:16.286Z,2.50
2018-08-04T10:28:44.541Z,2.30
2018-08-04T10:31:12.792Z,2.80
2018-08-04T10:33:41.063Z,2.50
2018-08-04T10:36:09.322Z,2.13
2018-08-04T10:38:37.645Z,2.13
2018-08-04T10:41:05.869Z,2.60
2018-08-04T10:43:36.244Z,3.33
2018-08-04T10:46:04.554Z,2.00
2018-08-04T10:48:32.845Z,2.77
2018-08-04T10:51:01.103Z,2.13
2018-08-04T10:53:29.385Z,1.97
2018-08-04T10:55:57.645Z,1.80
2018-08-04T10:58:25.943Z,2.57
2018-08-04T11:00:54.204Z,2.23
2018-08-04T11:03:23.465Z,1.77
2018-08-04T11:05:52.829Z,1.47
2018-08-04T11:08:21.137Z,2.93
2018-08-04T11:10:49.394Z,2.17
2018-08-04T11:13:17.681Z,1.70
2018-08-04T11:15:45.933Z,1.93
2018-08-04T11:18:14.209Z,2.47
2018-08-04T11:20:42.440Z,1.80
2018-08-04T11:23:10.772Z,1.90
2018-08-04T11:25:40.185Z,2.27
2018-08-04T11:28:08.449Z,2.43
2018-08-04T11:30:36.736Z,2.00
2018-08-04T11:33:05.149Z,1.83
2018-08-04T11:35:33.422Z,1.80
2018-08-04T11:38:01.672Z,1.70
2018-08-04T11:40:30.862Z,2.00
2018-08-04T11:42:59.254Z,1.60
2018-08-04T11:46:30.933Z,1.83
2018-08-04T11:49:01.221Z,2.10
2018-08-04T11:51:29.518Z,1.80
2018-08-04T11:53:57.773Z,1.90
2018-08-04T11:56:26.057Z,1.73
2018-08-04T11:58:54.292Z,2.23
2018-08-04T12:01:22.564Z,1.57
2018-08-04T12:03:50.823Z,2.40
2018-08-04T12:06:19.174Z,1.60
2018-08-04T12:08:47.456Z,1.63
2018-08-04T12:11:15.823Z,2.00
2018-08-04T12:13:44.013Z,1.80
2018-08-04T12:16:12.260Z,1.90
2018-08-04T12:18:40.588Z,1.73
2018-08-04T12:21:09.933Z,1.70
2018-08-04T12:23:38.213Z,2.77
2018-08-04T12:26:06.490Z,2.20
2018-08-04T12:28:34.753Z,2.80
2018-08-04T12:31:02.988Z,2.30
2018-08-04T12:33:31.265Z,2.87
2018-08-04T12:35:59.515Z,2.10
2018-08-04T12:38:29.852Z,2.20
2018-08-04T12:41:03.318Z,2.10
2018-08-04T12:43:31.598Z,2.10
2018-08-04T12:45:59.868Z,2.30
2018-08-04T12:48:29.650Z,2.40
2018-08-04T12:50:59.729Z,2.07
2018-08-04T12:53:28.697Z,2.13
2018-08-04T12:55:57.373Z,2.00
2018-08-04T12:58:25.695Z,2.40
2018-08-04T13:00:55.005Z,2.17
2018-08-04T13:03:23.335Z,2.57
2018-08-04T13:05:51.765Z,2.13
2018-08-04T13:08:20.025Z,1.83
2018-08-04T13:10:49.465Z,1.90
2018-08-04T13:13:17.738Z,2.15
2018-08-04T13:15:46.022Z,1.93
2018-08-04T13:18:14.292Z,1.50
2018-08-04T13:20:42.595Z,1.57
2018-08-04T13:23:10.825Z,1.60
2018-08-04T13:25:39.112Z,2.00
2018-08-04T13:28:07.501Z,1.80
2018-08-04T13:30:37.305Z,1.80
2018-08-04T13:33:05.554Z,1.83
2018-08-04T13:35:33.801Z,1.73
2018-08-04T13:38:04.145Z,1.63
2018-08-04T13:40:32.614Z,1.90
2018-08-04T13:43:00.963Z,1.87
2018-08-04T13:45:29.173Z,2.30
2018-08-04T13:47:57.827Z,2.07
2018-08-04T13:50:26.122Z,1.60
2018-08-04T13:52:55.419Z,2.00
2018-08-04T13:55:23.701Z,1.23
2018-08-04T13:57:51.969Z,2.03
2018-08-04T14:00:20.201Z,1.27
2018-08-04T14:02:48.498Z,1.80
2018-08-04T14:05:16.776Z,1.60
2018-08-04T14:07:45.033Z,1.90
2018-08-04T14:10:13.494Z,1.10
2018-08-04T14:12:42.989Z,1.67
2018-08-04T14:15:11.240Z,1.90
2018-08-04T14:17:39.528Z,2.43
2018-08-04T14:20:07.876Z,1.27
2018-08-04T14:22:36.161Z,1.70
2018-08-04T14:25:04.534Z,1.53
2018-08-04T14:27:32.900Z,1.30
2018-08-04T14:30:01.176Z,1.23
2018-08-04T14:32:29.482Z,1.50
2018-08-04T14:34:57.894Z,2.37
2018-08-04T14:37:26.085Z,1.70
2018-08-04T14:39:54.356Z,1.63
2018-08-04T14:42:22.605Z,1.63
2018-08-04T14:44:50.872Z,1.77
2018-08-04T14:47:20.224Z,2.00
2018-08-04T14:49:48.488Z,2.10
2018-08-04T14:52:16.780Z,1.90
2018-08-04T14:54:45.041Z,1.57
2018-08-04T14:57:13.299Z,1.30
2018-08-04T14:59:41.627Z,1.57
2018-08-04T15:02:09.929Z,1.37
2018-08-04T15:04:38.237Z,1.27
2018-08-04T15:07:07.585Z,1.07
2018-08-04T15:09:35.864Z,1.10
2018-08-04T15:12:05.170Z,1.50
2018-08-04T15:14:33.457Z,1.17
2018-08-04T15:17:01.725Z,1.15
2018-08-04T15:19:30.992Z,1.77
2018-08-04T15:21:59.307Z,1.23
2018-08-04T15:24:27.600Z,1.30
2018-08-04T15:26:55.874Z,1.80
2018-08-04T15:29:24.112Z,1.30
2018-08-04T15:31:52.386Z,1.30
2018-08-04T15:34:20.656Z,1.47
2018-08-04T15:36:48.942Z,1.17
2018-08-04T15:39:17.205Z,0.80
2018-08-04T15:41:45.507Z,1.30
2018-08-04T15:44:13.769Z,0.90
2018-08-04T15:46:42.078Z,0.80
2018-08-04T15:49:10.313Z,1.53
2018-08-04T15:51:38.590Z,1.30
2018-08-04T15:54:06.848Z,1.10
2018-08-04T15:56:35.132Z,1.30
2018-08-04T15:59:03.373Z,0.93
2018-08-04T16:01:31.624Z,1.10
2018-08-04T16:03:59.898Z,1.20
2018-08-04T16:06:28.147Z,1.30
2018-08-04T16:08:56.421Z,2.10
2018-08-04T16:11:24.665Z,1.30
2018-08-04T16:13:52.970Z,1.30
2018-08-04T16:16:21.204Z,1.87
2018-08-04T16:18:49.468Z,1.37
2018-08-04T16:21:17.712Z,1.00
2018-08-04T16:23:45.989Z,1.27
2018-08-04T16:26:14.253Z,1.17
2018-08-04T16:28:42.525Z,1.07
2018-08-04T16:31:10.760Z,1.40
2018-08-04T16:33:39.045Z,1.07
2018-08-04T16:36:07.329Z,1.57
2018-08-04T16:38:35.597Z,1.27
2018-08-04T16:41:03.888Z,1.40
2018-08-04T16:43:33.177Z,1.23
2018-08-04T16:46:01.481Z,1.60
2018-08-04T16:48:29.717Z,1.80
2018-08-04T16:50:57.976Z,1.10
2018-08-04T16:53:26.215Z,1.53
2018-08-04T16:55:54.487Z,2.63
2018-08-04T16:58:22.720Z,1.40
2018-08-04T17:00:51.024Z,0.90
2018-08-04T17:03:19.305Z,1.10
2018-08-04T17:05:47.604Z,1.60
2018-08-04T17:08:15.856Z,1.70
2018-08-04T17:10:44.126Z,1.53
2018-08-04T17:13:12.401Z,1.57
2018-08-04T17:15:40.661Z,1.70
2018-08-04T17:18:09.052Z,1.30
2018-08-04T17:20:37.249Z,1.53
2018-08-04T17:23:05.825Z,1.70
2018-08-04T17:25:34.097Z,1.50
2018-08-04T17:28:02.373Z,1.10
2018-08-04T17:30:30.671Z,1.40
2018-08-04T17:32:58.939Z,1.70
2018-08-04T17:35:27.185Z,1.60
2018-08-04T17:37:55.461Z,1.33
2018-08-04T17:40:23.950Z,1.70
2018-08-04T17:42:52.257Z,1.50
2018-08-04T17:45:20.505Z,1.40
2018-08-04T17:47:48.808Z,1.80
2018-08-04T17:50:17.148Z,1.33
2018-08-04T17:52:45.414Z,1.90
2018-08-04T17:55:14.713Z,1.70
2018-08-04T17:57:43.089Z,1.37
2018-08-04T18:00:13.437Z,1.30
2018-08-04T18:02:41.970Z,1.33
2018-08-04T18:05:10.285Z,1.13
2018-08-04T18:07:38.845Z,1.23
2018-08-04T18:10:07.438Z,0.93
2018-08-04T18:12:35.770Z,1.33
2018-08-04T18:15:04.941Z,1.40
2018-08-04T18:17:33.176Z,1.47
2018-08-04T18:20:01.453Z,1.00
2018-08-04T18:22:29.765Z,0.80
2018-08-04T18:24:58.065Z,1.00
2018-08-04T18:27:26.337Z,1.03
2018-08-04T18:29:54.729Z,1.20
2018-08-04T18:32:22.995Z,1.00
2018-08-04T18:34:51.257Z,1.03
2018-08-04T18:37:19.512Z,0.73
2018-08-04T18:39:47.885Z,1.30
2018-08-04T18:42:16.171Z,1.03
2018-08-04T18:44:44.524Z,1.00
2018-08-04T18:47:12.733Z,0.97
2018-08-04T18:49:40.969Z,0.97
2018-08-04T18:52:09.241Z,1.20
2018-08-04T18:54:37.537Z,1.47
2018-08-04T18:57:05.793Z,1.10
2018-08-04T18:59:34.642Z,1.00
2018-08-04T19:02:02.889Z,0.80
2018-08-04T19:04:31.229Z,1.30
2018-08-04T19:06:59.466Z,1.10
2018-08-04T19:09:27.733Z,1.10
2018-08-04T19:11:56.003Z,0.93
2018-08-04T19:14:24.273Z,1.13
2018-08-04T19:16:52.512Z,1.00
2018-08-04T19:19:20.839Z,1.07
2018-08-04T19:21:49.078Z,1.33
2018-08-04T19:24:17.357Z,1.53
2018-08-04T19:26:45.606Z,1.20
2018-08-04T19:29:13.876Z,1.27
2018-08-04T19:31:42.141Z,1.00
2018-08-04T19:34:10.417Z,1.50
2018-08-04T19:36:38.665Z,1.00
2018-08-04T19:39:08.522Z,1.37
2018-08-04T19:41:38.825Z,1.40
2018-08-04T19:44:07.350Z,1.10
2018-08-04T19:46:35.654Z,1.47
2018-08-04T19:49:05.969Z,1.70
2018-08-04T19:51:34.393Z,1.07
2018-08-04T19:54:02.821Z,1.10
2018-08-04T19:56:31.218Z,1.40
2018-08-04T19:58:59.533Z,1.30
2018-08-04T20:01:29.769Z,1.33
2018-08-04T20:03:58.328Z,1.20
2018-08-04T20:06:27.667Z,1.33
2018-08-04T20:08:56.980Z,1.90
2018-08-04T20:11:25.614Z,1.57
2018-08-04T20:13:53.960Z,1.67
2018-08-04T20:16:22.228Z,1.87
2018-08-04T20:18:50.501Z,1.50
2018-08-04T20:21:18.757Z,1.60
2018-08-04T20:23:47.042Z,1.47
2018-08-04T20:26:15.330Z,1.50
2018-08-04T20:28:43.610Z,1.70
2018-08-04T20:31:11.866Z,2.17
2018-08-04T20:33:40.579Z,1.63
2018-08-04T20:36:10.857Z,1.80
2018-08-04T20:38:40.147Z,1.70
2018-08-04T20:41:08.413Z,1.97
2018-08-04T20:43:36.785Z,2.00
2018-08-04T20:46:07.207Z,1.83
2018-08-04T20:48:36.497Z,2.13
2018-08-04T20:51:04.814Z,1.93
2018-08-04T20:53:33.177Z,2.40
2018-08-04T20:56:01.569Z,2.37
2018-08-04T20:58:29.906Z,2.50
2018-08-04T21:01:09.538Z,2.17
2018-08-04T21:03:42.213Z,2.77
2018-08-04T21:06:11.582Z,2.43
2018-08-04T21:08:39.842Z,2.67
2018-08-04T21:11:08.255Z,2.57
2018-08-04T21:13:36.489Z,2.60
2018-08-04T21:16:04.810Z,3.10
2018-08-04T21:18:33.299Z,3.67
2018-08-04T21:21:01.592Z,3.03
2018-08-04T21:23:30.896Z,3.73
2018-08-04T21:25:59.252Z,3.77
2018-08-04T21:28:27.488Z,4.07
2018-08-04T21:30:57.004Z,3.83
2018-08-04T21:33:25.306Z,4.20
2018-08-04T21:35:54.681Z,3.60
2018-08-04T21:38:22.913Z,3.63
2018-08-04T21:40:51.229Z,4.07
2018-08-04T21:43:19.477Z,4.20
2018-08-04T21:45:47.810Z,4.57
2018-08-04T21:48:16.105Z,3.30
2018-08-04T21:50:44.355Z,4.50
2018-08-04T21:53:12.637Z,4.30
2018-08-04T21:55:40.885Z,4.10
2018-08-04T21:58:09.133Z,4.07
2018-08-04T22:00:41.645Z,4.37
2018-08-04T22:03:09.893Z,4.37
2018-08-04T22:05:38.241Z,4.60
2018-08-04T22:08:17.877Z,4.47
2018-08-04T22:10:46.153Z,4.30
2018-08-04T22:13:14.405Z,5.00
2018-08-04T22:15:42.669Z,4.43
2018-08-04T22:18:10.926Z,4.10
2018-08-04T22:20:39.202Z,5.53
2018-08-04T22:23:07.464Z,4.37
2018-08-04T22:25:35.771Z,4.00
2018-08-04T22:28:04.026Z,4.87
2018-08-04T22:30:32.437Z,4.17
2018-08-04T22:33:06.257Z,5.70
2018-08-04T22:35:34.505Z,4.83
2018-08-04T22:38:02.790Z,4.30
2018-08-04T22:40:31.053Z,4.13
2018-08-04T22:43:00.505Z,4.50
2018-08-04T22:45:34.296Z,4.50
2018-08-04T22:48:03.624Z,4.40
2018-08-04T22:50:31.889Z,4.70
2018-08-04T22:53:00.209Z,4.63
2018-08-04T22:55:28.457Z,3.53
2018-08-04T22:57:56.795Z,3.30
2018-08-04T23:00:26.109Z,4.10
2018-08-04T23:02:54.393Z,4.30
2018-08-04T23:05:22.649Z,3.23
2018-08-04T23:07:51.062Z,3.03
2018-08-04T23:10:20.407Z,3.10
2018-08-04T23:12:48.705Z,2.87
2018-08-04T23:15:16.980Z,3.10
2018-08-04T23:17:46.324Z,3.10
2018-08-04T23:20:14.637Z,2.43
2018-08-04T23:22:42.918Z,3.17
2018-08-04T23:25:11.340Z,2.47
2018-08-04T23:28:42.848Z,3.13
2018-08-04T23:31:11.108Z,3.20
2018-08-04T23:33:39.404Z,2.57
2018-08-04T23:36:07.791Z,2.87
2018-08-04T23:38:36.077Z,2.37
2018-08-04T23:41:04.344Z,2.60
2018-08-04T23:43:32.639Z,2.50
2018-08-04T23:46:00.921Z,2.70
2018-08-04T23:48:29.271Z,2.30
2018-08-04T23:50:57.566Z,2.40
2018-08-04T23:53:25.841Z,2.37
2018-08-04T23:55:54.117Z,2.10
2018-08-04T23:58:22.389Z,2.57
